メインページ
METAR-TAF:

METAR-TAF

空港 :

オデッサ, ウクライナ

オデッサ国際空港

緯度: 46-26N, 経度: 030-46E, 海抜: 42m

現時点の気象観測

当レポートは17分前の15:30(UTC)に作成
北西の風 17kt
気温 21°C
湿度 28%
気圧 1012 hPa
視程10km以上
1,500メートル以下は雲なし、積乱雲なし

METAR: UKOO 191530Z 31009MPS CAVOK 21/02 Q1012 R34/090060 NOSIG

時間: 18:47 (15:47 UTC)

予報

当レポートは4時間46分前の11:01(UTC)に作成
予報は19日の 12時(UTC)から 20日の 12時(UTC)まで有効
西/北西の風 19kt、最大33ktの突風を伴う
視程: 6000m
高度1000ftの千切れ雲あり
高度2000ftの雲は散在している, 積乱雲.
19日の 18時(UTC)から 20日の 03時(UTC)まで一時的に
北/北西の風 12kt、最大23ktの突風を伴う
視程: 2100m
弱いにわか雨, 靄
20日の 06時(UTC)から 20日の 07時(UTC)まで徐々に
の風 21kt、最大35ktの突風を伴う

TAF: UKOO 191101Z 1912/2012 30010G17MPS 6000 BKN010 SCT020CB TEMPO 1918/2003 33006G12MPS 2100 -SHRA BR BECMG 2006/2007 36011G18MPS

4,000以上の空港の気象観測と天気予報(METAR報とTAF報)

利用可能な観測所は地図上に黄色い丸と赤い丸で示す。

丸の上にカーソルを重ねると観測所名を参照できる。

次にクリックすると気象観測と天気予報を参照できる。

マップの切り替え:黒色「×」印の緑ボタンをクリックして拡大、「-」印の緑ボタンをクリックして縮小、緑色の三角印をクリックして隣りの地図に切り替え


METAR-TAF: